sensor_id;sensor_type;location;lat;lon;timestamp;P1;durP1;ratioP1;P2;durP2;ratioP2
56039;SDS011;43937;41.366;2.072;2023-04-10T00:00:55;5.75;;;1.52;;
56039;SDS011;43937;41.366;2.072;2023-04-10T00:03:22;1.88;;;0.98;;
56039;SDS011;43937;41.366;2.072;2023-04-10T00:05:56;2.38;;;1.10;;
56039;SDS011;43937;41.366;2.072;2023-04-10T00:12:46;4.38;;;1.20;;
56039;SDS011;43937;41.366;2.072;2023-04-10T00:15:12;37.45;;;1.83;;
56039;SDS011;43937;41.366;2.072;2023-04-10T00:20:55;5.43;;;1.50;;
56039;SDS011;43937;41.366;2.072;2023-04-10T00:24:05;1.83;;;1.10;;
56039;SDS011;43937;41.366;2.072;2023-04-10T00:26:31;1.77;;;0.75;;
56039;SDS011;43937;41.366;2.072;2023-04-10T00:30:25;2.25;;;1.05;;
56039;SDS011;43937;41.366;2.072;2023-04-10T00:35:17;1.23;;;0.85;;
56039;SDS011;43937;41.366;2.072;2023-04-10T00:42:11;1.35;;;0.80;;
56039;SDS011;43937;41.366;2.072;2023-04-10T00:44:36;9.23;;;1.98;;
56039;SDS011;43937;41.366;2.072;2023-04-10T00:50:16;9.10;;;1.42;;
56039;SDS011;43937;41.366;2.072;2023-04-10T00:52:42;1.95;;;0.93;;
56039;SDS011;43937;41.366;2.072;2023-04-10T00:55:43;1.63;;;1.25;;
56039;SDS011;43937;41.366;2.072;2023-04-10T01:16:30;8.57;;;1.60;;
56039;SDS011;43937;41.366;2.072;2023-04-10T01:34:09;5.70;;;1.27;;
56039;SDS011;43937;41.366;2.072;2023-04-10T01:37:55;16.05;;;2.08;;
56039;SDS011;43937;41.366;2.072;2023-04-10T01:41:03;8.65;;;1.77;;
56039;SDS011;43937;41.366;2.072;2023-04-10T01:45:47;3.92;;;1.95;;
56039;SDS011;43937;41.366;2.072;2023-04-10T01:52:13;3.22;;;1.35;;
56039;SDS011;43937;41.366;2.072;2023-04-10T01:58:47;10.85;;;1.92;;
56039;SDS011;43937;41.366;2.072;2023-04-10T02:02:43;3.42;;;1.80;;
56039;SDS011;43937;41.366;2.072;2023-04-10T02:14:20;3.33;;;1.65;;
56039;SDS011;43937;41.366;2.072;2023-04-10T02:20:29;9.93;;;1.70;;
56039;SDS011;43937;41.366;2.072;2023-04-10T02:26:27;1.50;;;1.35;;
56039;SDS011;43937;41.366;2.072;2023-04-10T02:30:51;4.88;;;1.85;;
56039;SDS011;43937;41.366;2.072;2023-04-10T02:35:49;2.55;;;1.65;;
56039;SDS011;43937;41.366;2.072;2023-04-10T02:39:49;6.55;;;2.25;;
56039;SDS011;43937;41.366;2.072;2023-04-10T02:42:15;1.98;;;1.20;;
56039;SDS011;43937;41.366;2.072;2023-04-10T02:45:17;4.15;;;2.15;;
56039;SDS011;43937;41.366;2.072;2023-04-10T02:57:09;2.65;;;1.95;;
56039;SDS011;43937;41.366;2.072;2023-04-10T03:05:18;4.85;;;2.13;;
56039;SDS011;43937;41.366;2.072;2023-04-10T03:13:58;2.70;;;1.77;;
56039;SDS011;43937;41.366;2.072;2023-04-10T03:23:59;6.25;;;2.70;;
56039;SDS011;43937;41.366;2.072;2023-04-10T03:37:57;2.35;;;2.15;;
56039;SDS011;43937;41.366;2.072;2023-04-10T03:42:42;4.53;;;2.45;;
56039;SDS011;43937;41.366;2.072;2023-04-10T03:48:03;6.05;;;2.70;;
56039;SDS011;43937;41.366;2.072;2023-04-10T03:53:05;3.90;;;2.25;;
56039;SDS011;43937;41.366;2.072;2023-04-10T03:58:26;16.02;;;4.22;;
56039;SDS011;43937;41.366;2.072;2023-04-10T04:02:30;4.47;;;2.55;;
56039;SDS011;43937;41.366;2.072;2023-04-10T04:07:08;2.78;;;1.98;;
56039;SDS011;43937;41.366;2.072;2023-04-10T04:11:31;4.90;;;1.90;;
56039;SDS011;43937;41.366;2.072;2023-04-10T04:17:11;10.88;;;2.47;;
56039;SDS011;43937;41.366;2.072;2023-04-10T04:21:35;6.93;;;2.50;;
56039;SDS011;43937;41.366;2.072;2023-04-10T04:29:43;6.18;;;1.95;;
56039;SDS011;43937;41.366;2.072;2023-04-10T04:33:50;5.05;;;2.00;;
56039;SDS011;43937;41.366;2.072;2023-04-10T04:40:01;1.67;;;1.48;;
56039;SDS011;43937;41.366;2.072;2023-04-10T04:46:43;3.80;;;1.75;;
56039;SDS011;43937;41.366;2.072;2023-04-10T04:49:53;7.97;;;2.42;;
56039;SDS011;43937;41.366;2.072;2023-04-10T04:53:43;2.15;;;1.42;;
56039;SDS011;43937;41.366;2.072;2023-04-10T05:00:55;3.15;;;2.22;;
56039;SDS011;43937;41.366;2.072;2023-04-10T05:11:00;2.35;;;1.30;;
56039;SDS011;43937;41.366;2.072;2023-04-10T05:13:25;1.42;;;1.25;;
56039;SDS011;43937;41.366;2.072;2023-04-10T05:20:34;4.63;;;2.25;;
56039;SDS011;43937;41.366;2.072;2023-04-10T05:39:32;2.53;;;1.40;;
56039;SDS011;43937;41.366;2.072;2023-04-10T05:41:57;1.77;;;1.67;;
56039;SDS011;43937;41.366;2.072;2023-04-10T05:48:02;7.05;;;2.80;;
56039;SDS011;43937;41.366;2.072;2023-04-10T05:50:28;10.20;;;1.15;;
56039;SDS011;43937;41.366;2.072;2023-04-10T06:03:03;1.52;;;1.42;;
56039;SDS011;43937;41.366;2.072;2023-04-10T06:08:46;2.55;;;1.33;;
56039;SDS011;43937;41.366;2.072;2023-04-10T06:11:12;2.40;;;1.58;;
56039;SDS011;43937;41.366;2.072;2023-04-10T06:13:37;1.88;;;1.48;;
56039;SDS011;43937;41.366;2.072;2023-04-10T06:16:03;8.45;;;1.60;;
56039;SDS011;43937;41.366;2.072;2023-04-10T06:23:43;5.50;;;1.90;;
56039;SDS011;43937;41.366;2.072;2023-04-10T06:30:24;2.83;;;1.88;;
56039;SDS011;43937;41.366;2.072;2023-04-10T06:39:30;4.65;;;1.88;;
56039;SDS011;43937;41.366;2.072;2023-04-10T06:49:55;3.70;;;1.67;;
56039;SDS011;43937;41.366;2.072;2023-04-10T06:53:44;4.20;;;1.92;;
56039;SDS011;43937;41.366;2.072;2023-04-10T07:01:23;10.88;;;2.05;;
56039;SDS011;43937;41.366;2.072;2023-04-10T07:07:47;10.10;;;2.17;;
56039;SDS011;43937;41.366;2.072;2023-04-10T07:10:14;1.95;;;1.38;;
56039;SDS011;43937;41.366;2.072;2023-04-10T07:19:57;3.20;;;2.30;;
56039;SDS011;43937;41.366;2.072;2023-04-10T07:22:22;2.53;;;2.05;;
56039;SDS011;43937;41.366;2.072;2023-04-10T07:25:58;3.75;;;2.80;;
56039;SDS011;43937;41.366;2.072;2023-04-10T07:33:35;6.90;;;2.33;;
56039;SDS011;43937;41.366;2.072;2023-04-10T07:36:02;2.30;;;1.70;;
56039;SDS011;43937;41.366;2.072;2023-04-10T07:44:51;5.55;;;1.45;;
56039;SDS011;43937;41.366;2.072;2023-04-10T07:47:47;1.85;;;1.40;;
56039;SDS011;43937;41.366;2.072;2023-04-10T07:57:19;9.65;;;2.33;;
56039;SDS011;43937;41.366;2.072;2023-04-10T08:07:38;2.45;;;1.55;;
56039;SDS011;43937;41.366;2.072;2023-04-10T08:14:04;5.28;;;2.60;;
56039;SDS011;43937;41.366;2.072;2023-04-10T08:16:31;5.05;;;2.45;;
56039;SDS011;43937;41.366;2.072;2023-04-10T08:30:57;7.68;;;4.18;;
56039;SDS011;43937;41.366;2.072;2023-04-10T08:36:27;2.53;;;1.80;;
56039;SDS011;43937;41.366;2.072;2023-04-10T08:38:52;1.70;;;1.35;;
56039;SDS011;43937;41.366;2.072;2023-04-10T08:50:57;2.83;;;1.50;;
56039;SDS011;43937;41.366;2.072;2023-04-10T08:53:25;2.05;;;0.80;;
56039;SDS011;43937;41.366;2.072;2023-04-10T08:58:34;14.25;;;1.40;;
56039;SDS011;43937;41.366;2.072;2023-04-10T09:01:02;2.15;;;0.93;;
56039;SDS011;43937;41.366;2.072;2023-04-10T09:03:30;3.33;;;1.50;;
56039;SDS011;43937;41.366;2.072;2023-04-10T09:09:55;4.68;;;1.35;;
56039;SDS011;43937;41.366;2.072;2023-04-10T09:16:33;1.27;;;1.13;;
56039;SDS011;43937;41.366;2.072;2023-04-10T09:33:45;3.00;;;1.45;;
56039;SDS011;43937;41.366;2.072;2023-04-10T09:37:17;0.77;;;0.75;;
56039;SDS011;43937;41.366;2.072;2023-04-10T09:46:37;16.85;;;1.17;;
56039;SDS011;43937;41.366;2.072;2023-04-10T09:54:11;3.47;;;1.27;;
56039;SDS011;43937;41.366;2.072;2023-04-10T09:56:46;1.13;;;0.93;;
56039;SDS011;43937;41.366;2.072;2023-04-10T10:03:41;1.45;;;0.95;;
56039;SDS011;43937;41.366;2.072;2023-04-10T10:07:34;1.77;;;1.08;;
56039;SDS011;43937;41.366;2.072;2023-04-10T10:10:01;2.10;;;0.98;;
56039;SDS011;43937;41.366;2.072;2023-04-10T10:28:30;2.33;;;1.00;;
56039;SDS011;43937;41.366;2.072;2023-04-10T10:36:26;0.68;;;0.60;;
56039;SDS011;43937;41.366;2.072;2023-04-10T11:04:48;6.32;;;1.67;;
56039;SDS011;43937;41.366;2.072;2023-04-10T11:18:14;5.13;;;1.25;;
56039;SDS011;43937;41.366;2.072;2023-04-10T11:32:41;1.73;;;1.38;;
56039;SDS011;43937;41.366;2.072;2023-04-10T11:38:35;3.90;;;1.17;;
56039;SDS011;43937;41.366;2.072;2023-04-10T11:47:01;1.70;;;1.02;;
56039;SDS011;43937;41.366;2.072;2023-04-10T11:54:03;4.28;;;1.27;;
56039;SDS011;43937;41.366;2.072;2023-04-10T12:01:43;1.70;;;1.10;;
56039;SDS011;43937;41.366;2.072;2023-04-10T12:08:59;4.15;;;1.02;;
56039;SDS011;43937;41.366;2.072;2023-04-10T12:17:13;4.90;;;1.52;;
56039;SDS011;43937;41.366;2.072;2023-04-10T12:19:38;2.10;;;1.10;;
56039;SDS011;43937;41.366;2.072;2023-04-10T12:24:39;6.60;;;1.33;;
56039;SDS011;43937;41.366;2.072;2023-04-10T12:30:16;1.58;;;0.88;;
56039;SDS011;43937;41.366;2.072;2023-04-10T12:34:17;2.47;;;1.20;;
56039;SDS011;43937;41.366;2.072;2023-04-10T12:40:23;3.03;;;1.13;;
56039;SDS011;43937;41.366;2.072;2023-04-10T12:42:49;2.38;;;0.93;;
56039;SDS011;43937;41.366;2.072;2023-04-10T12:53:01;1.27;;;1.10;;
56039;SDS011;43937;41.366;2.072;2023-04-10T12:55:27;2.13;;;1.00;;
56039;SDS011;43937;41.366;2.072;2023-04-10T12:57:53;1.15;;;0.77;;
56039;SDS011;43937;41.366;2.072;2023-04-10T13:00:20;1.92;;;1.05;;
56039;SDS011;43937;41.366;2.072;2023-04-10T13:05:04;2.45;;;1.35;;
56039;SDS011;43937;41.366;2.072;2023-04-10T13:14:36;1.30;;;1.00;;
56039;SDS011;43937;41.366;2.072;2023-04-10T13:17:01;1.63;;;1.02;;
56039;SDS011;43937;41.366;2.072;2023-04-10T13:24:38;2.55;;;1.13;;
56039;SDS011;43937;41.366;2.072;2023-04-10T13:30:50;1.42;;;0.82;;
56039;SDS011;43937;41.366;2.072;2023-04-10T13:33:16;3.92;;;1.13;;
56039;SDS011;43937;41.366;2.072;2023-04-10T13:35:41;6.53;;;1.45;;
56039;SDS011;43937;41.366;2.072;2023-04-10T13:38:07;1.77;;;0.80;;
56039;SDS011;43937;41.366;2.072;2023-04-10T13:40:33;1.00;;;0.90;;
56039;SDS011;43937;41.366;2.072;2023-04-10T13:51:47;1.85;;;1.10;;
56039;SDS011;43937;41.366;2.072;2023-04-10T13:58:11;1.08;;;0.65;;
56039;SDS011;43937;41.366;2.072;2023-04-10T14:03:00;3.72;;;1.10;;
56039;SDS011;43937;41.366;2.072;2023-04-10T14:07:32;3.05;;;1.10;;
56039;SDS011;43937;41.366;2.072;2023-04-10T14:20:19;3.13;;;0.80;;
56039;SDS011;43937;41.366;2.072;2023-04-10T14:24:36;1.58;;;1.05;;
56039;SDS011;43937;41.366;2.072;2023-04-10T14:29:32;2.13;;;1.17;;
56039;SDS011;43937;41.366;2.072;2023-04-10T14:42:00;0.70;;;0.70;;
56039;SDS011;43937;41.366;2.072;2023-04-10T14:44:27;3.50;;;1.05;;
56039;SDS011;43937;41.366;2.072;2023-04-10T14:48:05;0.77;;;0.63;;
56039;SDS011;43937;41.366;2.072;2023-04-10T14:53:10;1.08;;;0.85;;
56039;SDS011;43937;41.366;2.072;2023-04-10T15:02:18;1.50;;;0.82;;
56039;SDS011;43937;41.366;2.072;2023-04-10T15:10:47;0.88;;;0.73;;
56039;SDS011;43937;41.366;2.072;2023-04-10T15:16:06;0.95;;;0.55;;
56039;SDS011;43937;41.366;2.072;2023-04-10T15:25:55;0.98;;;0.60;;
56039;SDS011;43937;41.366;2.072;2023-04-10T15:28:57;2.80;;;1.00;;
56039;SDS011;43937;41.366;2.072;2023-04-10T15:34:38;2.08;;;0.98;;
56039;SDS011;43937;41.366;2.072;2023-04-10T15:48:13;2.92;;;0.90;;
56039;SDS011;43937;41.366;2.072;2023-04-10T15:50:39;1.75;;;0.90;;
56039;SDS011;43937;41.366;2.072;2023-04-10T15:53:21;1.90;;;1.10;;
56039;SDS011;43937;41.366;2.072;2023-04-10T15:55:46;0.98;;;0.60;;
56039;SDS011;43937;41.366;2.072;2023-04-10T16:12:18;3.88;;;1.58;;
56039;SDS011;43937;41.366;2.072;2023-04-10T16:16:39;0.88;;;0.73;;
56039;SDS011;43937;41.366;2.072;2023-04-10T16:19:05;1.15;;;0.90;;
56039;SDS011;43937;41.366;2.072;2023-04-10T16:21:30;1.20;;;0.82;;
56039;SDS011;43937;41.366;2.072;2023-04-10T16:32:58;3.05;;;0.85;;
56039;SDS011;43937;41.366;2.072;2023-04-10T16:35:23;1.70;;;0.85;;
56039;SDS011;43937;41.366;2.072;2023-04-10T16:43:37;3.10;;;0.90;;
56039;SDS011;43937;41.366;2.072;2023-04-10T16:48:40;3.00;;;1.08;;
56039;SDS011;43937;41.366;2.072;2023-04-10T16:52:58;1.48;;;0.93;;
56039;SDS011;43937;41.366;2.072;2023-04-10T17:03:05;9.07;;;1.75;;
56039;SDS011;43937;41.366;2.072;2023-04-10T17:05:31;2.72;;;1.45;;
56039;SDS011;43937;41.366;2.072;2023-04-10T17:08:00;1.42;;;0.90;;
56039;SDS011;43937;41.366;2.072;2023-04-10T17:10:26;2.05;;;1.13;;
56039;SDS011;43937;41.366;2.072;2023-04-10T17:12:52;4.93;;;1.35;;
56039;SDS011;43937;41.366;2.072;2023-04-10T17:20:54;2.10;;;0.88;;
56039;SDS011;43937;41.366;2.072;2023-04-10T17:26:03;2.90;;;0.93;;
56039;SDS011;43937;41.366;2.072;2023-04-10T17:28:49;1.10;;;0.98;;
56039;SDS011;43937;41.366;2.072;2023-04-10T17:31:15;0.80;;;0.77;;
56039;SDS011;43937;41.366;2.072;2023-04-10T17:44:56;1.13;;;0.98;;
56039;SDS011;43937;41.366;2.072;2023-04-10T17:49:14;1.40;;;1.30;;
56039;SDS011;43937;41.366;2.072;2023-04-10T17:53:05;2.15;;;1.23;;
56039;SDS011;43937;41.366;2.072;2023-04-10T17:56:18;1.45;;;0.70;;
56039;SDS011;43937;41.366;2.072;2023-04-10T17:58:44;0.90;;;0.73;;
56039;SDS011;43937;41.366;2.072;2023-04-10T18:01:09;0.85;;;0.80;;
56039;SDS011;43937;41.366;2.072;2023-04-10T18:07:55;1.27;;;1.17;;
56039;SDS011;43937;41.366;2.072;2023-04-10T18:13:54;2.55;;;2.35;;
56039;SDS011;43937;41.366;2.072;2023-04-10T18:16:19;7.45;;;2.95;;
56039;SDS011;43937;41.366;2.072;2023-04-10T18:20:42;3.10;;;2.70;;
56039;SDS011;43937;41.366;2.072;2023-04-10T18:24:07;8.25;;;2.28;;
56039;SDS011;43937;41.366;2.072;2023-04-10T18:28:04;3.10;;;1.90;;
56039;SDS011;43937;41.366;2.072;2023-04-10T18:38:55;2.95;;;1.92;;
56039;SDS011;43937;41.366;2.072;2023-04-10T18:42:07;2.67;;;2.15;;
56039;SDS011;43937;41.366;2.072;2023-04-10T18:45:10;1.23;;;1.17;;
56039;SDS011;43937;41.366;2.072;2023-04-10T18:48:49;4.05;;;2.05;;
56039;SDS011;43937;41.366;2.072;2023-04-10T18:53:20;1.50;;;1.40;;
56039;SDS011;43937;41.366;2.072;2023-04-10T18:56:40;1.80;;;1.70;;
56039;SDS011;43937;41.366;2.072;2023-04-10T18:59:06;11.55;;;2.55;;
56039;SDS011;43937;41.366;2.072;2023-04-10T19:01:31;3.05;;;1.80;;
56039;SDS011;43937;41.366;2.072;2023-04-10T19:03:57;4.53;;;2.28;;
56039;SDS011;43937;41.366;2.072;2023-04-10T19:06:23;3.03;;;2.13;;
56039;SDS011;43937;41.366;2.072;2023-04-10T19:09:52;4.32;;;2.53;;
56039;SDS011;43937;41.366;2.072;2023-04-10T19:13:13;4.30;;;3.15;;
56039;SDS011;43937;41.366;2.072;2023-04-10T19:16:01;5.05;;;3.10;;
56039;SDS011;43937;41.366;2.072;2023-04-10T19:18:30;4.32;;;2.78;;
56039;SDS011;43937;41.366;2.072;2023-04-10T19:21:25;7.95;;;3.20;;
56039;SDS011;43937;41.366;2.072;2023-04-10T19:24:36;5.38;;;2.95;;
56039;SDS011;43937;41.366;2.072;2023-04-10T19:30:03;4.22;;;2.95;;
56039;SDS011;43937;41.366;2.072;2023-04-10T19:33:51;1.65;;;1.40;;
56039;SDS011;43937;41.366;2.072;2023-04-10T19:37:01;4.50;;;2.58;;
56039;SDS011;43937;41.366;2.072;2023-04-10T19:39:26;1.98;;;1.77;;
56039;SDS011;43937;41.366;2.072;2023-04-10T19:41:52;2.75;;;2.45;;
56039;SDS011;43937;41.366;2.072;2023-04-10T19:44:57;1.80;;;1.70;;
56039;SDS011;43937;41.366;2.072;2023-04-10T19:51:09;2.42;;;1.77;;
56039;SDS011;43937;41.366;2.072;2023-04-10T19:55:26;13.23;;;8.90;;
56039;SDS011;43937;41.366;2.072;2023-04-10T19:59:36;14.63;;;11.02;;
56039;SDS011;43937;41.366;2.072;2023-04-10T20:02:01;11.05;;;6.78;;
56039;SDS011;43937;41.366;2.072;2023-04-10T20:04:27;11.85;;;7.47;;
56039;SDS011;43937;41.366;2.072;2023-04-10T20:13:43;2.92;;;2.65;;
56039;SDS011;43937;41.366;2.072;2023-04-10T20:16:09;3.90;;;2.53;;
56039;SDS011;43937;41.366;2.072;2023-04-10T20:22:44;3.80;;;2.72;;
56039;SDS011;43937;41.366;2.072;2023-04-10T20:26:45;7.45;;;2.88;;
56039;SDS011;43937;41.366;2.072;2023-04-10T20:36:22;4.57;;;2.90;;
56039;SDS011;43937;41.366;2.072;2023-04-10T20:45:53;24.70;;;15.60;;
56039;SDS011;43937;41.366;2.072;2023-04-10T20:49:19;16.15;;;11.55;;
56039;SDS011;43937;41.366;2.072;2023-04-10T20:51:45;4.40;;;3.47;;
56039;SDS011;43937;41.366;2.072;2023-04-10T20:54:11;7.22;;;4.13;;
56039;SDS011;43937;41.366;2.072;2023-04-10T20:58:18;2.63;;;2.38;;
56039;SDS011;43937;41.366;2.072;2023-04-10T21:03:42;6.55;;;3.67;;
56039;SDS011;43937;41.366;2.072;2023-04-10T21:08:08;4.05;;;2.22;;
56039;SDS011;43937;41.366;2.072;2023-04-10T21:27:48;2.20;;;1.70;;
56039;SDS011;43937;41.366;2.072;2023-04-10T21:36:00;2.60;;;2.40;;
56039;SDS011;43937;41.366;2.072;2023-04-10T21:42:07;3.15;;;2.33;;
56039;SDS011;43937;41.366;2.072;2023-04-10T21:48:39;11.55;;;8.40;;
56039;SDS011;43937;41.366;2.072;2023-04-10T21:51:05;3.08;;;2.58;;
56039;SDS011;43937;41.366;2.072;2023-04-10T21:58:34;2.58;;;2.30;;
56039;SDS011;43937;41.366;2.072;2023-04-10T22:03:20;4.43;;;2.83;;
56039;SDS011;43937;41.366;2.072;2023-04-10T22:09:12;4.03;;;2.95;;
56039;SDS011;43937;41.366;2.072;2023-04-10T22:17:34;3.45;;;3.15;;
56039;SDS011;43937;41.366;2.072;2023-04-10T22:22:52;8.85;;;5.75;;
56039;SDS011;43937;41.366;2.072;2023-04-10T22:27:03;5.75;;;4.20;;
56039;SDS011;43937;41.366;2.072;2023-04-10T22:37:58;3.92;;;3.55;;
56039;SDS011;43937;41.366;2.072;2023-04-10T22:41:17;4.55;;;2.55;;
56039;SDS011;43937;41.366;2.072;2023-04-10T22:46:35;4.57;;;2.78;;
56039;SDS011;43937;41.366;2.072;2023-04-10T22:49:01;1.88;;;1.52;;
56039;SDS011;43937;41.366;2.072;2023-04-10T22:51:26;3.33;;;1.88;;
56039;SDS011;43937;41.366;2.072;2023-04-10T22:53:52;9.02;;;2.75;;
56039;SDS011;43937;41.366;2.072;2023-04-10T22:56:18;2.80;;;2.00;;
56039;SDS011;43937;41.366;2.072;2023-04-10T23:06:42;4.20;;;2.00;;
56039;SDS011;43937;41.366;2.072;2023-04-10T23:13:06;9.13;;;3.08;;
56039;SDS011;43937;41.366;2.072;2023-04-10T23:15:32;3.88;;;3.40;;
56039;SDS011;43937;41.366;2.072;2023-04-10T23:21:28;3.42;;;2.97;;
56039;SDS011;43937;41.366;2.072;2023-04-10T23:23:53;6.60;;;3.70;;
56039;SDS011;43937;41.366;2.072;2023-04-10T23:26:19;3.65;;;2.85;;
56039;SDS011;43937;41.366;2.072;2023-04-10T23:30:15;3.88;;;2.72;;
56039;SDS011;43937;41.366;2.072;2023-04-10T23:36:15;6.35;;;2.80;;
56039;SDS011;43937;41.366;2.072;2023-04-10T23:50:17;6.93;;;2.83;;
56039;SDS011;43937;41.366;2.072;2023-04-10T23:55:54;3.35;;;2.80;;
56039;SDS011;43937;41.366;2.072;2023-04-10T23:59:27;6.55;;;3.13;;
